createdAt,value
2023-04-17T00:00:16.233Z,0.00
2023-04-17T00:01:16.252Z,0.00
2023-04-17T00:02:16.248Z,0.00
2023-04-17T00:03:16.275Z,0.00
2023-04-17T00:04:16.402Z,0.00
2023-04-17T00:05:16.227Z,0.00
2023-04-17T00:06:16.151Z,0.00
2023-04-17T00:07:16.158Z,0.00
2023-04-17T00:08:16.136Z,0.00
2023-04-17T00:09:16.141Z,0.00
2023-04-17T00:10:16.118Z,0.00
2023-04-17T00:11:17.997Z,0.00
2023-04-17T00:12:16.093Z,0.00
2023-04-17T00:13:16.097Z,0.00
2023-04-17T00:14:16.073Z,0.00
2023-04-17T00:15:16.101Z,0.00
2023-04-17T00:16:16.124Z,0.00
2023-04-17T00:17:16.078Z,0.00
2023-04-17T00:18:16.028Z,0.00
2023-04-17T00:19:16.038Z,0.00
2023-04-17T00:20:16.063Z,0.00
2023-04-17T00:21:16.042Z,0.00
2023-04-17T00:22:15.984Z,0.00
2023-04-17T00:23:15.989Z,0.00
2023-04-17T00:24:15.969Z,0.00
2023-04-17T00:25:15.986Z,0.00
2023-04-17T00:26:15.952Z,0.00
2023-04-17T00:27:15.966Z,0.00
2023-04-17T00:28:15.924Z,0.00
2023-04-17T00:29:15.947Z,0.00
2023-04-17T00:30:15.898Z,0.00
2023-04-17T00:31:15.964Z,0.00
2023-04-17T00:32:15.890Z,0.00
2023-04-17T00:33:15.898Z,0.00
2023-04-17T00:34:15.869Z,0.00
2023-04-17T00:35:15.883Z,0.00
2023-04-17T00:36:15.836Z,0.00
2023-04-17T00:37:15.845Z,0.00
2023-04-17T00:38:15.829Z,0.00
2023-04-17T00:39:15.836Z,0.00
2023-04-17T00:40:15.797Z,0.00
2023-04-17T00:41:15.815Z,0.00
2023-04-17T00:42:15.779Z,0.00
2023-04-17T00:43:15.806Z,0.00
2023-04-17T00:44:15.757Z,0.00
2023-04-17T00:45:15.761Z,0.00
2023-04-17T00:46:15.824Z,0.00
2023-04-17T00:47:15.750Z,0.00
2023-04-17T00:48:15.725Z,0.00
2023-04-17T00:49:15.736Z,0.00
2023-04-17T00:50:15.691Z,0.00
2023-04-17T00:51:15.714Z,0.00
2023-04-17T00:52:15.668Z,0.00
2023-04-17T00:53:15.677Z,0.00
2023-04-17T00:54:15.661Z,0.00
2023-04-17T00:55:15.680Z,0.00
2023-04-17T00:56:15.626Z,0.00
2023-04-17T00:57:15.637Z,0.00
2023-04-17T00:58:15.608Z,0.00
2023-04-17T00:59:15.633Z,0.00
2023-04-17T01:00:15.586Z,0.00
2023-04-17T01:01:15.636Z,0.00
2023-04-17T01:02:15.640Z,0.00
2023-04-17T01:03:15.723Z,0.00
2023-04-17T01:04:15.664Z,0.00
2023-04-17T01:05:15.579Z,0.00
2023-04-17T01:06:15.517Z,0.00
2023-04-17T01:07:15.546Z,0.00
2023-04-17T01:08:15.502Z,0.00
2023-04-17T01:09:15.518Z,0.00
2023-04-17T01:10:15.490Z,0.00
2023-04-17T01:11:15.537Z,0.00
2023-04-17T01:12:15.458Z,0.00
2023-04-17T01:13:15.466Z,0.00
2023-04-17T01:14:15.434Z,0.00
2023-04-17T01:15:15.458Z,0.00
2023-04-17T01:16:15.545Z,0.00
2023-04-17T01:17:15.461Z,0.00
2023-04-17T01:18:15.391Z,0.00
2023-04-17T01:19:15.380Z,0.00
2023-04-17T01:20:15.416Z,0.00
2023-04-17T01:21:15.373Z,0.00
2023-04-17T01:22:15.369Z,0.00
2023-04-17T01:23:15.337Z,0.00
2023-04-17T01:24:15.360Z,0.00
2023-04-17T01:25:15.311Z,0.00
2023-04-17T01:26:15.333Z,0.00
2023-04-17T01:27:15.375Z,0.00
2023-04-17T01:28:15.316Z,0.00
2023-04-17T01:29:15.334Z,0.00
2023-04-17T01:30:15.286Z,0.00
2023-04-17T01:31:15.306Z,0.00
2023-04-17T01:32:15.289Z,0.00
2023-04-17T01:33:15.235Z,0.00
2023-04-17T01:34:16.622Z,0.00
2023-04-17T01:35:15.249Z,0.00
2023-04-17T01:36:15.200Z,0.00
2023-04-17T01:37:15.222Z,0.00
2023-04-17T01:38:15.194Z,0.00
2023-04-17T01:39:15.216Z,0.00
2023-04-17T01:40:15.155Z,0.00
2023-04-17T01:41:15.183Z,0.00
2023-04-17T01:42:15.137Z,0.00
2023-04-17T01:43:15.162Z,0.00
2023-04-17T01:44:15.130Z,0.00
2023-04-17T01:45:15.141Z,0.00
2023-04-17T01:46:15.117Z,0.00
2023-04-17T01:47:15.128Z,0.00
2023-04-17T01:48:15.077Z,0.00
2023-04-17T01:49:15.096Z,0.00
2023-04-17T01:50:15.070Z,0.00
2023-04-17T01:51:15.068Z,0.00
2023-04-17T01:52:15.035Z,0.00
2023-04-17T01:53:15.038Z,0.00
2023-04-17T01:54:15.028Z,0.00
2023-04-17T01:55:15.020Z,0.00
2023-04-17T01:56:15.002Z,0.00
2023-04-17T01:57:15.003Z,0.00
2023-04-17T01:58:14.971Z,0.00
2023-04-17T01:59:14.992Z,0.00
2023-04-17T02:00:14.967Z,0.00
2023-04-17T02:01:14.993Z,0.00
2023-04-17T02:02:15.086Z,0.00
2023-04-17T02:03:15.078Z,0.00
2023-04-17T02:04:15.061Z,0.00
2023-04-17T02:05:14.929Z,0.00
2023-04-17T02:06:14.899Z,0.00
2023-04-17T02:07:14.906Z,0.00
2023-04-17T02:08:14.858Z,0.00
2023-04-17T02:09:14.899Z,0.00
2023-04-17T02:10:14.844Z,0.00
2023-04-17T02:11:14.864Z,0.00
2023-04-17T02:12:14.838Z,0.00
2023-04-17T02:13:14.849Z,0.00
2023-04-17T02:14:14.800Z,0.00
2023-04-17T02:15:14.808Z,0.00
2023-04-17T02:16:14.824Z,0.00
2023-04-17T02:17:14.810Z,0.00
2023-04-17T02:18:14.768Z,0.00
2023-04-17T02:19:14.784Z,0.00
2023-04-17T02:20:14.750Z,0.00
2023-04-17T02:21:14.739Z,0.00
2023-04-17T02:22:14.733Z,0.00
2023-04-17T02:23:14.732Z,0.00
2023-04-17T02:24:14.709Z,0.00
2023-04-17T02:25:14.704Z,0.00
2023-04-17T02:26:14.671Z,0.00
2023-04-17T02:27:14.682Z,0.00
2023-04-17T02:28:14.662Z,0.00
2023-04-17T02:29:14.698Z,0.00
2023-04-17T02:30:14.630Z,0.00
2023-04-17T02:31:14.684Z,0.00
2023-04-17T02:32:14.608Z,0.00
2023-04-17T02:33:14.626Z,0.00
2023-04-17T02:34:14.599Z,0.00
2023-04-17T02:35:14.593Z,0.00
2023-04-17T02:36:14.562Z,0.00
2023-04-17T02:37:14.588Z,0.00
2023-04-17T02:38:14.543Z,0.00
2023-04-17T02:39:14.559Z,0.00
2023-04-17T02:40:14.526Z,0.00
2023-04-17T02:41:14.542Z,0.00
2023-04-17T02:42:14.517Z,0.00
2023-04-17T02:43:14.545Z,0.00
2023-04-17T02:44:14.481Z,0.00
2023-04-17T02:45:14.506Z,0.00
2023-04-17T02:46:14.507Z,0.00
2023-04-17T02:47:14.475Z,0.00
2023-04-17T02:48:14.442Z,0.00
2023-04-17T02:49:14.519Z,0.00
2023-04-17T02:50:14.422Z,0.00
2023-04-17T02:51:14.443Z,0.00
2023-04-17T02:52:14.402Z,0.00
2023-04-17T02:53:14.426Z,0.00
2023-04-17T02:54:14.386Z,0.00
2023-04-17T02:55:14.412Z,0.00
2023-04-17T02:56:14.367Z,0.00
2023-04-17T02:57:14.365Z,0.00
2023-04-17T02:58:14.339Z,0.00
2023-04-17T02:59:14.361Z,0.00
2023-04-17T03:00:14.321Z,0.00
2023-04-17T03:01:14.355Z,0.00
2023-04-17T03:02:14.351Z,0.00
2023-04-17T03:03:14.466Z,0.00
2023-04-17T03:04:14.336Z,0.00
2023-04-17T03:05:14.281Z,0.00
2023-04-17T03:06:14.266Z,0.00
2023-04-17T03:07:14.273Z,0.00
2023-04-17T03:08:14.233Z,0.00
2023-04-17T03:09:14.359Z,0.00
2023-04-17T03:10:14.213Z,0.00
2023-04-17T03:11:14.242Z,0.00
2023-04-17T03:12:14.194Z,0.00
2023-04-17T03:13:14.196Z,0.00
2023-04-17T03:14:14.170Z,0.00
2023-04-17T03:15:14.213Z,0.00
2023-04-17T03:16:14.287Z,0.00
2023-04-17T03:17:14.174Z,0.00
2023-04-17T03:18:14.126Z,0.00
2023-04-17T03:19:14.146Z,0.00
2023-04-17T03:20:14.109Z,0.00
2023-04-17T03:21:14.125Z,0.00
2023-04-17T03:22:14.091Z,0.00
2023-04-17T03:23:14.109Z,0.00
2023-04-17T03:24:14.104Z,0.00
2023-04-17T03:25:14.079Z,0.00
2023-04-17T03:26:14.146Z,0.00
2023-04-17T03:27:14.136Z,0.00
2023-04-17T03:28:14.033Z,0.00
2023-04-17T03:29:14.334Z,0.00
2023-04-17T03:30:14.004Z,0.00
2023-04-17T03:31:14.039Z,0.00
2023-04-17T03:32:14.121Z,0.00
2023-04-17T03:33:14.002Z,0.00
2023-04-17T03:34:13.960Z,0.00
2023-04-17T03:35:13.965Z,0.00
2023-04-17T03:36:13.942Z,0.00
2023-04-17T03:37:13.960Z,0.00
2023-04-17T03:38:13.953Z,0.00
2023-04-17T03:39:14.115Z,0.00
2023-04-17T03:40:13.907Z,0.00
2023-04-17T03:41:13.924Z,0.00
2023-04-17T03:42:13.887Z,0.00
2023-04-17T03:43:13.892Z,0.00
2023-04-17T03:44:13.865Z,0.00
2023-04-17T03:45:13.858Z,0.00
2023-04-17T03:46:13.871Z,0.00
2023-04-17T03:47:13.860Z,0.00
2023-04-17T03:48:13.830Z,0.00
2023-04-17T03:49:13.992Z,0.00
2023-04-17T03:50:13.790Z,0.00
2023-04-17T03:51:13.812Z,0.00
2023-04-17T03:52:13.768Z,0.00
2023-04-17T03:53:13.796Z,0.00
2023-04-17T03:54:13.768Z,0.00
2023-04-17T03:55:13.780Z,0.00
2023-04-17T03:56:13.735Z,0.00
2023-04-17T03:57:13.749Z,0.00
2023-04-17T03:58:13.663Z,1.00
2023-04-17T03:59:13.875Z,0.00
2023-04-17T04:00:13.669Z,1.00
2023-04-17T04:01:13.636Z,1.00
2023-04-17T04:02:13.762Z,0.00
2023-04-17T04:03:13.931Z,0.00
2023-04-17T04:04:13.817Z,0.00
2023-04-17T04:05:13.717Z,0.00
2023-04-17T04:06:13.578Z,1.00
2023-04-17T04:07:13.638Z,0.00
2023-04-17T04:08:13.596Z,0.00
2023-04-17T04:09:13.783Z,0.00
2023-04-17T04:10:13.536Z,1.00
2023-04-17T04:11:13.536Z,1.00
2023-04-17T04:12:13.494Z,6.00
2023-04-17T04:13:13.514Z,2.00
2023-04-17T04:14:13.486Z,1.00
2023-04-17T04:15:13.497Z,1.00
2023-04-17T04:16:13.476Z,2.00
2023-04-17T04:17:13.461Z,3.00
2023-04-17T04:18:13.450Z,6.00
2023-04-17T04:19:13.783Z,4.00
2023-04-17T04:20:13.426Z,3.00
2023-04-17T04:21:13.415Z,3.00
2023-04-17T04:22:13.411Z,3.00
2023-04-17T04:23:13.406Z,5.00
2023-04-17T04:24:13.380Z,4.00
2023-04-17T04:25:13.383Z,4.00
2023-04-17T04:26:13.342Z,3.00
2023-04-17T04:27:13.373Z,9.00
2023-04-17T04:28:13.347Z,7.00
2023-04-17T04:29:13.542Z,8.00
2023-04-17T04:30:13.304Z,9.00
2023-04-17T04:31:13.324Z,4.00
2023-04-17T04:32:13.306Z,5.00
2023-04-17T04:33:13.311Z,6.00
2023-04-17T04:34:13.270Z,5.00
2023-04-17T04:35:13.272Z,7.00
2023-04-17T04:36:13.254Z,8.00
2023-04-17T04:37:13.249Z,7.00
2023-04-17T04:38:13.228Z,9.00
2023-04-17T04:39:13.494Z,10.00
2023-04-17T04:40:13.204Z,12.00
2023-04-17T04:41:13.233Z,13.00
2023-04-17T04:42:13.181Z,14.00
2023-04-17T04:43:13.259Z,15.00
2023-04-17T04:44:13.158Z,17.00
2023-04-17T04:45:13.193Z,18.00
2023-04-17T04:46:13.164Z,17.00
2023-04-17T04:47:13.165Z,20.00
2023-04-17T04:48:13.114Z,19.00
2023-04-17T04:49:13.377Z,17.00
2023-04-17T04:50:13.100Z,17.00
2023-04-17T04:51:13.105Z,17.00
2023-04-17T04:52:13.085Z,17.00
2023-04-17T04:53:13.083Z,17.00
2023-04-17T04:54:13.060Z,18.00
2023-04-17T04:55:13.062Z,18.00
2023-04-17T04:56:13.032Z,20.00
2023-04-17T04:57:13.038Z,21.00
2023-04-17T04:58:13.007Z,23.00
2023-04-17T04:59:13.184Z,25.00
2023-04-17T05:00:12.990Z,27.00
2023-04-17T05:01:13.068Z,29.00
2023-04-17T05:02:13.050Z,31.00
2023-04-17T05:03:13.261Z,35.00
2023-04-17T05:04:13.007Z,39.00
2023-04-17T05:05:12.971Z,43.00
2023-04-17T05:06:12.931Z,46.00
2023-04-17T05:07:12.952Z,50.00
2023-04-17T05:08:12.911Z,55.00
2023-04-17T05:09:14.766Z,60.00
2023-04-17T05:10:12.911Z,65.00
2023-04-17T05:11:12.912Z,69.00
2023-04-17T05:12:12.860Z,74.00
2023-04-17T05:13:12.869Z,76.00
2023-04-17T05:14:12.847Z,77.00
2023-04-17T05:15:12.890Z,77.00
2023-04-17T05:16:12.869Z,76.00
2023-04-17T05:17:12.858Z,78.00
2023-04-17T05:18:12.807Z,80.00
2023-04-17T05:19:12.991Z,84.00
2023-04-17T05:20:12.793Z,87.00
2023-04-17T05:21:12.815Z,90.00
2023-04-17T05:22:12.766Z,93.00
2023-04-17T05:23:12.789Z,94.00
2023-04-17T05:24:12.741Z,97.00
2023-04-17T05:25:12.771Z,97.00
2023-04-17T05:26:12.739Z,99.00
2023-04-17T05:27:12.732Z,102.00
2023-04-17T05:28:14.838Z,106.00
2023-04-17T05:29:12.882Z,111.00
2023-04-17T05:30:12.680Z,114.00
2023-04-17T05:31:12.726Z,117.00
2023-04-17T05:32:12.668Z,116.00
2023-04-17T05:33:12.683Z,118.00
2023-04-17T05:34:12.638Z,129.00
2023-04-17T05:35:12.640Z,123.00
2023-04-17T05:36:12.639Z,118.00
2023-04-17T05:37:12.613Z,137.00
2023-04-17T05:38:12.631Z,133.00
2023-04-17T05:39:12.779Z,114.00
2023-04-17T05:40:12.593Z,116.00
2023-04-17T05:41:12.560Z,121.00
2023-04-17T05:42:12.561Z,126.00
2023-04-17T05:43:12.555Z,140.00
2023-04-17T05:44:12.555Z,132.00
2023-04-17T05:45:12.522Z,130.00
2023-04-17T05:46:12.636Z,134.00
2023-04-17T05:47:12.506Z,142.00
2023-04-17T05:48:12.513Z,153.00
2023-04-17T05:49:12.690Z,157.00
2023-04-17T05:50:12.512Z,137.00
2023-04-17T05:51:12.464Z,142.00
2023-04-17T05:52:12.483Z,150.00
2023-04-17T05:53:12.447Z,172.00
2023-04-17T05:54:12.436Z,177.00
2023-04-17T05:55:12.411Z,162.00
2023-04-17T05:56:12.441Z,169.00
2023-04-17T05:57:12.383Z,185.00
2023-04-17T05:59:11.716Z,219.00
2023-04-17T06:00:12.374Z,211.00
2023-04-17T06:01:12.347Z,177.00
2023-04-17T06:02:12.479Z,155.00
2023-04-17T06:03:12.513Z,128.00
2023-04-17T06:04:12.745Z,113.00
2023-04-17T06:05:12.492Z,110.00
2023-04-17T06:06:12.313Z,116.00
2023-04-17T06:07:12.302Z,122.00
2023-04-17T06:08:12.309Z,144.00
2023-04-17T06:09:12.502Z,151.00
2023-04-17T06:10:12.260Z,149.00
2023-04-17T06:11:12.257Z,156.00
2023-04-17T06:12:12.261Z,169.00
2023-04-17T06:13:12.225Z,168.00
2023-04-17T06:14:12.238Z,159.00
2023-04-17T06:15:12.201Z,134.00
2023-04-17T06:16:12.230Z,135.00
2023-04-17T06:17:12.450Z,162.00
2023-04-17T06:18:12.186Z,165.00
2023-04-17T06:19:12.445Z,185.00
2023-04-17T06:20:12.164Z,188.00
2023-04-17T06:21:12.145Z,192.00
2023-04-17T06:22:12.166Z,192.00
2023-04-17T06:23:12.115Z,190.00
2023-04-17T06:24:12.143Z,176.00
2023-04-17T06:25:12.092Z,167.00
2023-04-17T06:26:12.118Z,182.00
2023-04-17T06:27:12.107Z,202.00
2023-04-17T06:28:12.085Z,208.00
2023-04-17T06:29:12.324Z,200.00
2023-04-17T06:30:12.120Z,187.00
2023-04-17T06:31:12.197Z,193.00
2023-04-17T06:32:12.066Z,192.00
2023-04-17T06:33:12.020Z,190.00
2023-04-17T06:34:12.018Z,190.00
2023-04-17T06:35:11.991Z,205.00
2023-04-17T06:36:12.012Z,231.00
2023-04-17T06:37:11.978Z,270.00
2023-04-17T06:38:11.974Z,300.00
2023-04-17T06:39:12.225Z,301.00
2023-04-17T06:40:11.952Z,302.00
2023-04-17T06:41:11.924Z,293.00
2023-04-17T06:42:11.936Z,293.00
2023-04-17T06:43:11.917Z,285.00
2023-04-17T06:44:11.917Z,269.00
2023-04-17T06:45:11.881Z,256.00
2023-04-17T06:46:11.923Z,276.00
2023-04-17T06:47:11.877Z,311.00
2023-04-17T06:48:11.900Z,325.00
2023-04-17T06:49:12.448Z,346.00
2023-04-17T06:50:11.848Z,365.00
2023-04-17T06:51:11.822Z,377.00
2023-04-17T06:52:11.835Z,422.00
2023-04-17T06:53:11.792Z,466.00
2023-04-17T06:54:11.828Z,496.00
2023-04-17T06:55:11.783Z,512.00
2023-04-17T06:56:11.805Z,505.00
2023-04-17T06:57:11.754Z,467.00
2023-04-17T06:58:11.768Z,436.00
2023-04-17T06:59:12.133Z,437.00
2023-04-17T07:00:11.759Z,440.00
2023-04-17T07:01:11.767Z,452.00
2023-04-17T07:02:11.784Z,505.00
2023-04-17T07:03:11.770Z,531.00
2023-04-17T07:04:11.747Z,571.00
2023-04-17T07:05:11.701Z,564.00
2023-04-17T07:06:11.684Z,581.00
2023-04-17T07:07:11.651Z,572.00
2023-04-17T07:08:11.668Z,550.00
2023-04-17T07:09:11.802Z,534.00
2023-04-17T07:10:11.637Z,512.00
2023-04-17T07:11:11.603Z,502.00
2023-04-17T07:12:11.638Z,504.00
2023-04-17T07:13:11.585Z,499.00
2023-04-17T07:14:12.929Z,522.00
2023-04-17T07:15:11.597Z,483.00
2023-04-17T07:16:11.611Z,486.00
2023-04-17T07:17:11.532Z,538.00
2023-04-17T07:18:11.561Z,517.00
2023-04-17T07:19:11.727Z,524.00
2023-04-17T07:20:11.541Z,571.00
2023-04-17T07:21:11.501Z,577.00
2023-04-17T07:22:11.516Z,571.00
2023-04-17T07:23:11.472Z,619.00
2023-04-17T07:24:11.500Z,618.00
2023-04-17T07:25:11.496Z,605.00
2023-04-17T07:26:11.465Z,568.00
2023-04-17T07:27:11.450Z,529.00
2023-04-17T07:28:11.435Z,628.00
2023-04-17T07:29:11.662Z,673.00
2023-04-17T07:30:11.481Z,752.00
2023-04-17T07:31:11.407Z,777.00
2023-04-17T07:32:11.409Z,798.00
2023-04-17T07:33:11.374Z,820.00
2023-04-17T07:34:11.397Z,817.00
2023-04-17T07:35:11.344Z,842.00
2023-04-17T07:36:11.366Z,835.00
2023-04-17T07:37:11.336Z,760.00
2023-04-17T07:38:11.332Z,694.00
2023-04-17T07:39:11.518Z,614.00
2023-04-17T07:40:11.306Z,557.00
2023-04-17T07:41:11.282Z,593.00
2023-04-17T07:42:11.303Z,547.00
2023-04-17T07:43:11.258Z,524.00
2023-04-17T07:44:11.283Z,599.00
2023-04-17T07:45:11.245Z,525.00
2023-04-17T07:46:11.250Z,651.00
2023-04-17T07:47:11.470Z,629.00
2023-04-17T07:48:11.307Z,553.00
2023-04-17T07:49:12.368Z,470.00
2023-04-17T07:50:11.213Z,613.00
2023-04-17T07:51:11.176Z,471.00
2023-04-17T07:52:11.185Z,400.00
2023-04-17T07:53:11.160Z,515.00
2023-04-17T07:54:11.187Z,738.00
2023-04-17T07:55:11.174Z,549.00
2023-04-17T07:56:12.663Z,445.00
2023-04-17T07:57:11.152Z,395.00
2023-04-17T07:58:11.141Z,580.00
2023-04-17T07:59:11.346Z,568.00
2023-04-17T08:00:11.113Z,404.00
2023-04-17T08:01:11.099Z,342.00
2023-04-17T08:02:11.154Z,478.00
2023-04-17T08:03:11.238Z,507.00
2023-04-17T08:04:11.336Z,461.00
2023-04-17T08:05:11.067Z,379.00
2023-04-17T08:06:11.043Z,365.00
2023-04-17T08:07:11.008Z,430.00
2023-04-17T08:08:11.008Z,438.00
2023-04-17T08:09:11.160Z,428.00
2023-04-17T08:10:11.004Z,461.00
2023-04-17T08:11:10.969Z,614.00
2023-04-17T08:12:10.972Z,671.00
2023-04-17T08:13:10.934Z,784.00
2023-04-17T08:14:10.968Z,757.00
2023-04-17T08:15:10.925Z,492.00
2023-04-17T08:16:10.950Z,392.00
2023-04-17T08:17:11.002Z,424.00
2023-04-17T08:18:10.946Z,473.00
2023-04-17T08:19:11.131Z,548.00
2023-04-17T08:20:10.908Z,617.00
2023-04-17T08:21:10.854Z,677.00
2023-04-17T08:22:10.889Z,678.00
2023-04-17T08:23:10.831Z,615.00
2023-04-17T08:24:10.849Z,606.00
2023-04-17T08:25:10.841Z,614.00
2023-04-17T08:26:10.818Z,546.00
2023-04-17T08:27:10.791Z,428.00
2023-04-17T08:28:10.807Z,356.00
2023-04-17T08:29:10.988Z,394.00
2023-04-17T08:30:12.673Z,440.00
2023-04-17T08:31:10.793Z,439.00
2023-04-17T08:32:14.734Z,432.00
2023-04-17T08:33:10.774Z,440.00
2023-04-17T08:34:14.861Z,550.00
2023-04-17T08:35:10.742Z,496.00
2023-04-17T08:36:10.833Z,458.00
2023-04-17T08:37:10.692Z,425.00
2023-04-17T08:38:10.698Z,481.00
2023-04-17T08:39:10.934Z,539.00
2023-04-17T08:40:10.667Z,520.00
2023-04-17T08:41:10.670Z,490.00
2023-04-17T08:42:14.009Z,459.00
2023-04-17T08:43:10.627Z,453.00
2023-04-17T08:44:10.641Z,521.00
2023-04-17T08:45:10.654Z,568.00
2023-04-17T08:46:10.686Z,603.00
2023-04-17T08:47:10.589Z,648.00
2023-04-17T08:48:10.594Z,676.00
2023-04-17T08:49:10.942Z,669.00
2023-04-17T08:50:10.561Z,636.00
2023-04-17T08:51:10.564Z,583.00
2023-04-17T08:52:10.549Z,519.00
2023-04-17T08:53:10.506Z,493.00
2023-04-17T08:54:10.528Z,481.00
2023-04-17T08:55:10.497Z,526.00
2023-04-17T08:56:10.500Z,555.00
2023-04-17T08:57:10.488Z,549.00
2023-04-17T08:58:10.486Z,511.00
2023-04-17T08:59:10.593Z,508.00
2023-04-17T09:00:10.456Z,515.00
2023-04-17T09:01:10.525Z,510.00
2023-04-17T09:02:10.536Z,587.00
2023-04-17T09:03:10.507Z,597.00
2023-04-17T09:04:10.723Z,664.00
2023-04-17T09:05:10.379Z,653.00
2023-04-17T09:06:10.407Z,634.00
2023-04-17T09:07:10.375Z,621.00
2023-04-17T09:08:10.382Z,564.00
2023-04-17T09:09:10.503Z,578.00
2023-04-17T09:10:10.373Z,685.00
2023-04-17T09:11:10.317Z,783.00
2023-04-17T09:12:10.337Z,812.00
2023-04-17T09:13:10.305Z,783.00
2023-04-17T09:14:10.301Z,687.00
2023-04-17T09:15:10.295Z,575.00
2023-04-17T09:16:10.318Z,529.00
2023-04-17T09:17:10.286Z,592.00
2023-04-17T09:18:10.283Z,592.00
2023-04-17T09:19:10.495Z,484.00
2023-04-17T09:20:10.240Z,502.00
2023-04-17T09:21:10.245Z,511.00
2023-04-17T09:22:10.226Z,591.00
2023-04-17T09:23:10.200Z,619.00
2023-04-17T09:24:10.223Z,576.00
2023-04-17T09:25:10.176Z,445.00
2023-04-17T09:26:10.196Z,395.00
2023-04-17T09:27:10.160Z,392.00
2023-04-17T09:28:10.155Z,391.00
2023-04-17T09:29:10.615Z,460.00
2023-04-17T09:30:10.141Z,527.00
2023-04-17T09:31:11.934Z,515.00
2023-04-17T09:32:10.120Z,598.00
2023-04-17T09:33:10.086Z,490.00
2023-04-17T09:34:10.104Z,448.00
2023-04-17T09:35:10.061Z,499.00
2023-04-17T09:36:10.081Z,471.00
2023-04-17T09:37:10.042Z,521.00
2023-04-17T09:38:10.045Z,603.00
2023-04-17T09:39:10.362Z,578.00
2023-04-17T09:40:10.054Z,508.00
2023-04-17T09:41:09.999Z,430.00
2023-04-17T09:42:10.010Z,385.00
2023-04-17T09:43:10.275Z,374.00
2023-04-17T09:44:10.171Z,413.00
2023-04-17T09:45:09.966Z,487.00
2023-04-17T09:46:09.990Z,465.00
2023-04-17T09:47:09.931Z,474.00
2023-04-17T09:48:09.938Z,495.00
2023-04-17T09:49:09.950Z,494.00
2023-04-17T09:50:09.925Z,501.00
2023-04-17T09:51:09.907Z,492.00
2023-04-17T09:52:09.882Z,516.00
2023-04-17T09:53:09.888Z,566.00
2023-04-17T09:54:10.118Z,589.00
2023-04-17T09:55:09.871Z,608.00
2023-04-17T09:56:09.836Z,656.00
2023-04-17T09:57:09.837Z,761.00
2023-04-17T09:58:09.812Z,818.00
2023-04-17T09:59:09.852Z,1058.00
2023-04-17T10:00:09.794Z,1121.00
2023-04-17T10:01:09.849Z,850.00
2023-04-17T10:02:09.907Z,676.00
2023-04-17T10:03:09.996Z,796.00
2023-04-17T10:04:10.017Z,1045.00
2023-04-17T10:05:09.770Z,2919.00
2023-04-17T10:06:09.724Z,1099.00
2023-04-17T10:07:16.301Z,993.00
2023-04-17T10:08:09.708Z,895.00
2023-04-17T10:09:09.728Z,863.00
2023-04-17T10:10:09.684Z,998.00
2023-04-17T10:11:09.719Z,1287.00
2023-04-17T10:12:09.667Z,1157.00
2023-04-17T10:13:09.681Z,1215.00
2023-04-17T10:14:09.764Z,1340.00
2023-04-17T10:15:09.653Z,1397.00
2023-04-17T10:16:09.727Z,1412.00
2023-04-17T10:17:09.634Z,1350.00
2023-04-17T10:18:09.617Z,1502.00
2023-04-17T10:19:09.610Z,1433.00
2023-04-17T10:20:09.607Z,1177.00
2023-04-17T10:21:09.605Z,1292.00
2023-04-17T10:22:09.559Z,1201.00
2023-04-17T10:23:09.598Z,2979.00
2023-04-17T10:24:09.705Z,1610.00
2023-04-17T10:25:09.550Z,1428.00
2023-04-17T10:26:09.509Z,1245.00
2023-04-17T10:27:09.521Z,1227.00
2023-04-17T10:28:09.505Z,1231.00
2023-04-17T10:29:09.513Z,1222.00
2023-04-17T10:30:09.465Z,1092.00
2023-04-17T10:31:09.488Z,977.00
2023-04-17T10:32:09.606Z,731.00
2023-04-17T10:33:09.979Z,577.00
2023-04-17T10:34:09.611Z,538.00
2023-04-17T10:35:09.449Z,575.00
2023-04-17T10:36:09.413Z,652.00
2023-04-17T10:37:09.413Z,728.00
2023-04-17T10:38:09.418Z,856.00
2023-04-17T10:39:09.461Z,903.00
2023-04-17T10:40:09.362Z,775.00
2023-04-17T10:41:09.670Z,638.00
2023-04-17T10:42:09.347Z,632.00
2023-04-17T10:43:09.359Z,690.00
2023-04-17T10:44:09.347Z,761.00
2023-04-17T10:45:09.349Z,859.00
2023-04-17T10:46:09.356Z,889.00
2023-04-17T10:47:09.324Z,874.00
2023-04-17T10:48:09.360Z,916.00
2023-04-17T10:49:09.323Z,1154.00
2023-04-17T10:50:09.254Z,1278.00
2023-04-17T10:51:09.273Z,1304.00
2023-04-17T10:52:09.240Z,1404.00
2023-04-17T10:53:09.253Z,1370.00
2023-04-17T10:54:09.222Z,1250.00
2023-04-17T10:55:09.229Z,1122.00
2023-04-17T10:56:09.184Z,1052.00
2023-04-17T10:57:09.213Z,1065.00
2023-04-17T10:58:09.172Z,1237.00
2023-04-17T10:59:09.203Z,1266.00
2023-04-17T11:00:09.155Z,1302.00
2023-04-17T11:01:09.241Z,1200.00
2023-04-17T11:02:09.318Z,1004.00
2023-04-17T11:03:09.275Z,953.00
2023-04-17T11:04:09.241Z,853.00
2023-04-17T11:05:09.126Z,813.00
2023-04-17T11:06:09.099Z,853.00
2023-04-17T11:07:09.107Z,904.00
2023-04-17T11:08:09.072Z,808.00
2023-04-17T11:09:09.080Z,808.00
2023-04-17T11:10:09.054Z,912.00
2023-04-17T11:11:09.064Z,1083.00
2023-04-17T11:12:09.030Z,1173.00
2023-04-17T11:13:09.126Z,1109.00
2023-04-17T11:14:09.001Z,845.00
2023-04-17T11:15:09.013Z,762.00
2023-04-17T11:16:08.976Z,776.00
2023-04-17T11:17:09.093Z,835.00
2023-04-17T11:18:08.967Z,808.00
2023-04-17T11:19:08.970Z,760.00
2023-04-17T11:20:08.931Z,731.00
2023-04-17T11:21:08.943Z,677.00
2023-04-17T11:22:08.919Z,602.00
2023-04-17T11:23:08.940Z,545.00
2023-04-17T11:24:08.890Z,571.00
2023-04-17T11:25:08.914Z,638.00
2023-04-17T11:26:08.876Z,647.00
2023-04-17T11:27:08.906Z,561.00
2023-04-17T11:28:08.857Z,471.00
2023-04-17T11:29:08.873Z,418.00
2023-04-17T11:30:08.849Z,404.00
2023-04-17T11:31:08.891Z,375.00
2023-04-17T11:32:08.811Z,391.00
2023-04-17T11:33:08.915Z,411.00
2023-04-17T11:34:08.790Z,435.00
2023-04-17T11:35:08.815Z,481.00
2023-04-17T11:36:08.778Z,540.00
2023-04-17T11:37:08.794Z,705.00
2023-04-17T11:38:08.748Z,551.00
2023-04-17T11:39:08.772Z,614.00
2023-04-17T11:40:08.738Z,711.00
2023-04-17T11:41:08.759Z,802.00
2023-04-17T11:42:08.716Z,886.00
2023-04-17T11:43:08.746Z,979.00
2023-04-17T11:44:08.684Z,1090.00
2023-04-17T11:45:08.704Z,1225.00
2023-04-17T11:46:08.697Z,1420.00
2023-04-17T11:47:08.669Z,1643.00
2023-04-17T11:48:08.646Z,1780.00
2023-04-17T11:49:08.658Z,2487.00
2023-04-17T11:50:08.647Z,3489.00
2023-04-17T11:51:08.646Z,14173.00
2023-04-17T11:52:08.602Z,5945.00
2023-04-17T11:53:08.741Z,2648.00
2023-04-17T11:54:08.574Z,2225.00
2023-04-17T11:55:08.587Z,2025.00
2023-04-17T11:56:08.574Z,4020.00
2023-04-17T11:57:08.576Z,3194.00
2023-04-17T11:58:08.542Z,1880.00
2023-04-17T11:59:08.536Z,1274.00
2023-04-17T12:00:08.530Z,1150.00
2023-04-17T12:01:08.550Z,1982.00
2023-04-17T12:02:08.577Z,1921.00
2023-04-17T12:03:08.678Z,6015.00
2023-04-17T12:04:08.605Z,5979.00
2023-04-17T12:05:08.800Z,2965.00
2023-04-17T12:06:08.459Z,3261.00
2023-04-17T12:07:08.482Z,2396.00
2023-04-17T12:08:08.426Z,1490.00
2023-04-17T12:09:08.433Z,1137.00
2023-04-17T12:10:08.407Z,4048.00
2023-04-17T12:11:08.409Z,2818.00
2023-04-17T12:12:08.426Z,1142.00
2023-04-17T12:13:08.403Z,1264.00
2023-04-17T12:14:08.366Z,5442.00
2023-04-17T12:15:08.373Z,1727.00
2023-04-17T12:16:08.375Z,1936.00
2023-04-17T12:17:08.364Z,1131.00
2023-04-17T12:18:08.439Z,2302.00
2023-04-17T12:19:08.343Z,1702.00
2023-04-17T12:20:08.301Z,1129.00
2023-04-17T12:21:08.317Z,1106.00
2023-04-17T12:22:08.278Z,1087.00
2023-04-17T12:23:08.297Z,1190.00
2023-04-17T12:24:08.256Z,1308.00
2023-04-17T12:25:08.259Z,2051.00
2023-04-17T12:26:08.240Z,6454.00
2023-04-17T12:27:08.257Z,3341.00
2023-04-17T12:28:08.231Z,14942.00
2023-04-17T12:29:08.235Z,6571.00
2023-04-17T12:30:08.203Z,2541.00
2023-04-17T12:31:08.192Z,1461.00
2023-04-17T12:32:08.251Z,1237.00
2023-04-17T12:33:08.196Z,1554.00
2023-04-17T12:34:08.162Z,1455.00
2023-04-17T12:35:08.184Z,1317.00
2023-04-17T12:36:08.157Z,1074.00
2023-04-17T12:37:08.197Z,1061.00
2023-04-17T12:38:08.117Z,1243.00
2023-04-17T12:39:08.139Z,2288.00
2023-04-17T12:40:08.112Z,12810.00
2023-04-17T12:41:08.111Z,1781.00
2023-04-17T12:42:08.057Z,1880.00
2023-04-17T12:43:08.069Z,1900.00
2023-04-17T12:44:08.052Z,1302.00
2023-04-17T12:45:08.067Z,1040.00